sensor_id;sensor_type;location;lat;lon;timestamp;temperature;humidity
9399;DHT22;4739;49.334;8.792;2022-10-16T00:01:59;16.00;99.90
9399;DHT22;4739;49.334;8.792;2022-10-16T00:04:25;15.90;99.90
9399;DHT22;4739;49.334;8.792;2022-10-16T00:06:50;16.00;99.90
9399;DHT22;4739;49.334;8.792;2022-10-16T00:09:16;16.00;99.90
9399;DHT22;4739;49.334;8.792;2022-10-16T00:11:42;16.00;99.90
9399;DHT22;4739;49.334;8.792;2022-10-16T00:14:11;16.00;99.90
9399;DHT22;4739;49.334;8.792;2022-10-16T00:16:37;16.00;99.90
9399;DHT22;4739;49.334;8.792;2022-10-16T00:19:03;16.00;99.90
9399;DHT22;4739;49.334;8.792;2022-10-16T00:21:30;16.00;99.90
9399;DHT22;4739;49.334;8.792;2022-10-16T00:23:59;16.10;99.90
9399;DHT22;4739;49.334;8.792;2022-10-16T00:26:25;16.00;99.90
9399;DHT22;4739;49.334;8.792;2022-10-16T00:28:52;16.00;99.90
9399;DHT22;4739;49.334;8.792;2022-10-16T00:31:19;16.00;99.90
9399;DHT22;4739;49.334;8.792;2022-10-16T00:33:45;16.00;99.90
9399;DHT22;4739;49.334;8.792;2022-10-16T00:36:13;15.90;99.90
9399;DHT22;4739;49.334;8.792;2022-10-16T00:38:39;15.90;99.90
9399;DHT22;4739;49.334;8.792;2022-10-16T00:43:42;16.00;99.90
9399;DHT22;4739;49.334;8.792;2022-10-16T00:46:13;15.90;99.90
9399;DHT22;4739;49.334;8.792;2022-10-16T00:48:40;15.90;99.90
9399;DHT22;4739;49.334;8.792;2022-10-16T00:51:07;15.90;99.90
9399;DHT22;4739;49.334;8.792;2022-10-16T00:53:34;15.90;99.90
9399;DHT22;4739;49.334;8.792;2022-10-16T00:56:00;15.80;99.90
9399;DHT22;4739;49.334;8.792;2022-10-16T00:58:26;15.80;99.90
9399;DHT22;4739;49.334;8.792;2022-10-16T01:00:52;15.80;99.90
9399;DHT22;4739;49.334;8.792;2022-10-16T01:03:25;15.80;99.90
9399;DHT22;4739;49.334;8.792;2022-10-16T01:06:41;15.80;99.90
9399;DHT22;4739;49.334;8.792;2022-10-16T01:11:36;15.80;99.90
9399;DHT22;4739;49.334;8.792;2022-10-16T01:14:26;15.90;99.90
9399;DHT22;4739;49.334;8.792;2022-10-16T01:21:58;15.90;99.90
9399;DHT22;4739;49.334;8.792;2022-10-16T01:24:37;15.90;99.90
9399;DHT22;4739;49.334;8.792;2022-10-16T01:27:06;15.80;99.90
9399;DHT22;4739;49.334;8.792;2022-10-16T01:32:10;15.90;99.90
9399;DHT22;4739;49.334;8.792;2022-10-16T01:34:49;15.90;99.90
9399;DHT22;4739;49.334;8.792;2022-10-16T01:37:56;15.90;99.90
9399;DHT22;4739;49.334;8.792;2022-10-16T01:40:15;15.90;99.90
9399;DHT22;4739;49.334;8.792;2022-10-16T01:42:52;15.90;99.90
9399;DHT22;4739;49.334;8.792;2022-10-16T01:45:21;15.90;99.90
9399;DHT22;4739;49.334;8.792;2022-10-16T01:47:48;15.90;99.90
9399;DHT22;4739;49.334;8.792;2022-10-16T01:50:16;15.90;99.90
9399;DHT22;4739;49.334;8.792;2022-10-16T01:52:45;16.00;99.90
9399;DHT22;4739;49.334;8.792;2022-10-16T01:55:14;16.00;99.90
9399;DHT22;4739;49.334;8.792;2022-10-16T01:57:45;16.00;99.90
9399;DHT22;4739;49.334;8.792;2022-10-16T02:00:13;15.90;99.90
9399;DHT22;4739;49.334;8.792;2022-10-16T02:02:45;15.90;99.90
9399;DHT22;4739;49.334;8.792;2022-10-16T02:05:26;15.90;99.90
9399;DHT22;4739;49.334;8.792;2022-10-16T02:07:53;15.90;99.90
9399;DHT22;4739;49.334;8.792;2022-10-16T02:10:19;16.00;99.90
9399;DHT22;4739;49.334;8.792;2022-10-16T02:12:50;16.00;99.90
9399;DHT22;4739;49.334;8.792;2022-10-16T02:15:16;16.00;99.90
9399;DHT22;4739;49.334;8.792;2022-10-16T02:17:42;16.00;99.90
9399;DHT22;4739;49.334;8.792;2022-10-16T02:20:07;16.00;99.90
9399;DHT22;4739;49.334;8.792;2022-10-16T02:22:43;16.00;99.90
9399;DHT22;4739;49.334;8.792;2022-10-16T02:25:24;16.00;99.90
9399;DHT22;4739;49.334;8.792;2022-10-16T02:32:58;16.10;99.90
9399;DHT22;4739;49.334;8.792;2022-10-16T02:35:25;16.10;99.90
9399;DHT22;4739;49.334;8.792;2022-10-16T02:37:52;16.10;99.90
9399;DHT22;4739;49.334;8.792;2022-10-16T02:40:19;16.10;99.90
9399;DHT22;4739;49.334;8.792;2022-10-16T02:42:50;16.10;99.90
9399;DHT22;4739;49.334;8.792;2022-10-16T02:45:16;16.10;99.90
9399;DHT22;4739;49.334;8.792;2022-10-16T02:47:42;16.10;99.90
9399;DHT22;4739;49.334;8.792;2022-10-16T02:50:07;16.10;99.90
9399;DHT22;4739;49.334;8.792;2022-10-16T02:52:33;16.00;99.90
9399;DHT22;4739;49.334;8.792;2022-10-16T02:54:59;16.00;99.90
9399;DHT22;4739;49.334;8.792;2022-10-16T02:57:24;16.00;99.90
9399;DHT22;4739;49.334;8.792;2022-10-16T02:59:50;16.00;99.90
9399;DHT22;4739;49.334;8.792;2022-10-16T03:02:16;16.00;99.90
9399;DHT22;4739;49.334;8.792;2022-10-16T03:04:41;16.00;99.90
9399;DHT22;4739;49.334;8.792;2022-10-16T03:07:07;16.00;99.90
9399;DHT22;4739;49.334;8.792;2022-10-16T03:09:33;16.00;99.90
9399;DHT22;4739;49.334;8.792;2022-10-16T03:11:59;16.00;99.90
9399;DHT22;4739;49.334;8.792;2022-10-16T03:14:24;16.00;99.90
9399;DHT22;4739;49.334;8.792;2022-10-16T03:16:50;16.00;99.90
9399;DHT22;4739;49.334;8.792;2022-10-16T03:19:16;15.90;99.90
9399;DHT22;4739;49.334;8.792;2022-10-16T03:21:42;16.00;99.90
9399;DHT22;4739;49.334;8.792;2022-10-16T03:24:08;16.00;99.90
9399;DHT22;4739;49.334;8.792;2022-10-16T03:26:33;16.00;99.90
9399;DHT22;4739;49.334;8.792;2022-10-16T03:28:59;16.00;99.90
9399;DHT22;4739;49.334;8.792;2022-10-16T03:31:24;16.00;99.90
9399;DHT22;4739;49.334;8.792;2022-10-16T03:33:50;15.90;99.90
9399;DHT22;4739;49.334;8.792;2022-10-16T03:36:16;16.00;99.90
9399;DHT22;4739;49.334;8.792;2022-10-16T03:38:41;16.00;99.90
9399;DHT22;4739;49.334;8.792;2022-10-16T03:43:42;16.00;99.90
9399;DHT22;4739;49.334;8.792;2022-10-16T03:46:08;15.90;99.90
9399;DHT22;4739;49.334;8.792;2022-10-16T03:48:33;16.00;99.90
9399;DHT22;4739;49.334;8.792;2022-10-16T03:50:59;15.90;99.90
9399;DHT22;4739;49.334;8.792;2022-10-16T03:53:24;15.90;99.90
9399;DHT22;4739;49.334;8.792;2022-10-16T03:55:50;15.90;99.90
9399;DHT22;4739;49.334;8.792;2022-10-16T03:58:16;15.90;99.90
9399;DHT22;4739;49.334;8.792;2022-10-16T04:00:45;15.90;99.90
9399;DHT22;4739;49.334;8.792;2022-10-16T04:03:12;15.90;99.90
9399;DHT22;4739;49.334;8.792;2022-10-16T04:05:38;15.90;99.90
9399;DHT22;4739;49.334;8.792;2022-10-16T04:08:04;16.00;99.90
9399;DHT22;4739;49.334;8.792;2022-10-16T04:10:29;16.00;99.90
9399;DHT22;4739;49.334;8.792;2022-10-16T04:12:55;16.00;99.90
9399;DHT22;4739;49.334;8.792;2022-10-16T04:15:24;16.00;99.90
9399;DHT22;4739;49.334;8.792;2022-10-16T04:17:50;16.00;99.90
9399;DHT22;4739;49.334;8.792;2022-10-16T04:20:16;16.00;99.90
9399;DHT22;4739;49.334;8.792;2022-10-16T04:22:42;16.00;99.90
9399;DHT22;4739;49.334;8.792;2022-10-16T04:25:08;16.00;99.90
9399;DHT22;4739;49.334;8.792;2022-10-16T04:27:33;15.90;99.90
9399;DHT22;4739;49.334;8.792;2022-10-16T04:29:59;16.00;99.90
9399;DHT22;4739;49.334;8.792;2022-10-16T04:32:26;16.00;99.90
9399;DHT22;4739;49.334;8.792;2022-10-16T04:34:52;16.00;99.90
9399;DHT22;4739;49.334;8.792;2022-10-16T04:37:17;16.00;99.90
9399;DHT22;4739;49.334;8.792;2022-10-16T04:39:43;15.90;99.90
9399;DHT22;4739;49.334;8.792;2022-10-16T04:42:10;16.00;99.90
9399;DHT22;4739;49.334;8.792;2022-10-16T04:44:35;16.00;99.90
9399;DHT22;4739;49.334;8.792;2022-10-16T04:47:01;16.00;99.90
9399;DHT22;4739;49.334;8.792;2022-10-16T04:49:27;16.00;99.90
9399;DHT22;4739;49.334;8.792;2022-10-16T04:51:52;16.00;99.90
9399;DHT22;4739;49.334;8.792;2022-10-16T04:54:18;16.00;99.90
9399;DHT22;4739;49.334;8.792;2022-10-16T04:56:43;15.90;99.90
9399;DHT22;4739;49.334;8.792;2022-10-16T04:59:16;15.90;99.90
9399;DHT22;4739;49.334;8.792;2022-10-16T05:01:42;15.90;99.90
9399;DHT22;4739;49.334;8.792;2022-10-16T05:04:07;15.90;99.90
9399;DHT22;4739;49.334;8.792;2022-10-16T05:06:33;15.90;99.90
9399;DHT22;4739;49.334;8.792;2022-10-16T05:08:59;15.90;99.90
9399;DHT22;4739;49.334;8.792;2022-10-16T05:11:24;15.80;99.90
9399;DHT22;4739;49.334;8.792;2022-10-16T05:13:50;15.80;99.90
9399;DHT22;4739;49.334;8.792;2022-10-16T05:16:15;15.80;99.90
9399;DHT22;4739;49.334;8.792;2022-10-16T05:18:41;15.80;99.90
9399;DHT22;4739;49.334;8.792;2022-10-16T05:21:06;15.70;99.90
9399;DHT22;4739;49.334;8.792;2022-10-16T05:23:32;15.70;99.90
9399;DHT22;4739;49.334;8.792;2022-10-16T05:25:58;15.70;99.90
9399;DHT22;4739;49.334;8.792;2022-10-16T05:28:26;15.70;99.90
9399;DHT22;4739;49.334;8.792;2022-10-16T05:30:52;15.70;99.90
9399;DHT22;4739;49.334;8.792;2022-10-16T05:33:20;15.70;99.90
9399;DHT22;4739;49.334;8.792;2022-10-16T05:35:46;15.70;99.90
9399;DHT22;4739;49.334;8.792;2022-10-16T05:38:11;15.70;99.90
9399;DHT22;4739;49.334;8.792;2022-10-16T05:40:37;15.60;99.90
9399;DHT22;4739;49.334;8.792;2022-10-16T05:43:03;15.60;99.90
9399;DHT22;4739;49.334;8.792;2022-10-16T05:45:28;15.70;99.90
9399;DHT22;4739;49.334;8.792;2022-10-16T05:47:54;15.70;99.90
9399;DHT22;4739;49.334;8.792;2022-10-16T05:50:20;15.70;99.90
9399;DHT22;4739;49.334;8.792;2022-10-16T05:52:45;15.70;99.90
9399;DHT22;4739;49.334;8.792;2022-10-16T05:55:11;15.60;99.90
9399;DHT22;4739;49.334;8.792;2022-10-16T05:57:36;15.60;99.90
9399;DHT22;4739;49.334;8.792;2022-10-16T06:00:03;15.60;99.90
9399;DHT22;4739;49.334;8.792;2022-10-16T06:02:28;15.60;99.90
9399;DHT22;4739;49.334;8.792;2022-10-16T06:04:54;15.60;99.90
9399;DHT22;4739;49.334;8.792;2022-10-16T06:07:20;15.60;99.90
9399;DHT22;4739;49.334;8.792;2022-10-16T06:09:52;15.60;99.90
9399;DHT22;4739;49.334;8.792;2022-10-16T06:12:19;15.60;99.90
9399;DHT22;4739;49.334;8.792;2022-10-16T06:14:45;15.60;99.90
9399;DHT22;4739;49.334;8.792;2022-10-16T06:17:13;15.60;99.90
9399;DHT22;4739;49.334;8.792;2022-10-16T06:19:39;15.60;99.90
9399;DHT22;4739;49.334;8.792;2022-10-16T06:22:04;15.70;99.90
9399;DHT22;4739;49.334;8.792;2022-10-16T06:24:30;15.70;99.90
9399;DHT22;4739;49.334;8.792;2022-10-16T06:26:55;15.70;99.90
9399;DHT22;4739;49.334;8.792;2022-10-16T06:29:21;15.70;99.90
9399;DHT22;4739;49.334;8.792;2022-10-16T06:31:46;15.80;99.90
9399;DHT22;4739;49.334;8.792;2022-10-16T06:34:12;15.80;99.90
9399;DHT22;4739;49.334;8.792;2022-10-16T06:36:38;15.80;99.90
9399;DHT22;4739;49.334;8.792;2022-10-16T06:39:05;15.80;99.90
9399;DHT22;4739;49.334;8.792;2022-10-16T06:41:33;15.80;99.90
9399;DHT22;4739;49.334;8.792;2022-10-16T06:43:59;15.80;99.90
9399;DHT22;4739;49.334;8.792;2022-10-16T06:46:25;15.70;99.90
9399;DHT22;4739;49.334;8.792;2022-10-16T06:48:52;15.70;99.90
9399;DHT22;4739;49.334;8.792;2022-10-16T06:51:22;15.80;99.90
9399;DHT22;4739;49.334;8.792;2022-10-16T06:53:54;15.80;99.90
9399;DHT22;4739;49.334;8.792;2022-10-16T06:56:24;15.70;99.90
9399;DHT22;4739;49.334;8.792;2022-10-16T06:58:50;15.80;99.90
9399;DHT22;4739;49.334;8.792;2022-10-16T07:01:17;15.80;99.90
9399;DHT22;4739;49.334;8.792;2022-10-16T07:03:45;15.90;99.90
9399;DHT22;4739;49.334;8.792;2022-10-16T07:06:15;15.90;99.90
9399;DHT22;4739;49.334;8.792;2022-10-16T07:08:42;15.90;99.90
9399;DHT22;4739;49.334;8.792;2022-10-16T07:11:10;16.00;99.90
9399;DHT22;4739;49.334;8.792;2022-10-16T07:13:38;16.00;99.90
9399;DHT22;4739;49.334;8.792;2022-10-16T07:16:09;16.10;99.90
9399;DHT22;4739;49.334;8.792;2022-10-16T07:18:35;16.20;99.90
9399;DHT22;4739;49.334;8.792;2022-10-16T07:21:08;16.20;99.90
9399;DHT22;4739;49.334;8.792;2022-10-16T07:23:34;16.20;99.90
9399;DHT22;4739;49.334;8.792;2022-10-16T07:26:00;16.30;99.90
9399;DHT22;4739;49.334;8.792;2022-10-16T07:28:26;16.30;99.90
9399;DHT22;4739;49.334;8.792;2022-10-16T07:30:51;16.40;99.90
9399;DHT22;4739;49.334;8.792;2022-10-16T07:33:17;16.50;99.90
9399;DHT22;4739;49.334;8.792;2022-10-16T07:35:52;16.50;99.90
9399;DHT22;4739;49.334;8.792;2022-10-16T07:38:19;16.60;99.90
9399;DHT22;4739;49.334;8.792;2022-10-16T07:40:45;16.70;99.90
9399;DHT22;4739;49.334;8.792;2022-10-16T07:43:11;16.70;99.90
9399;DHT22;4739;49.334;8.792;2022-10-16T07:45:37;16.80;99.90
9399;DHT22;4739;49.334;8.792;2022-10-16T07:48:03;16.80;99.90
9399;DHT22;4739;49.334;8.792;2022-10-16T07:50:29;16.80;99.90
9399;DHT22;4739;49.334;8.792;2022-10-16T07:52:55;16.80;99.90
9399;DHT22;4739;49.334;8.792;2022-10-16T07:55:20;16.90;99.90
9399;DHT22;4739;49.334;8.792;2022-10-16T07:57:46;16.90;99.90
9399;DHT22;4739;49.334;8.792;2022-10-16T08:00:12;17.00;99.90
9399;DHT22;4739;49.334;8.792;2022-10-16T08:02:39;17.10;99.90
9399;DHT22;4739;49.334;8.792;2022-10-16T08:05:06;17.10;99.90
9399;DHT22;4739;49.334;8.792;2022-10-16T08:07:32;17.10;99.90
9399;DHT22;4739;49.334;8.792;2022-10-16T08:09:57;17.30;99.90
9399;DHT22;4739;49.334;8.792;2022-10-16T08:12:25;17.40;99.90
9399;DHT22;4739;49.334;8.792;2022-10-16T08:14:50;17.40;99.90
9399;DHT22;4739;49.334;8.792;2022-10-16T08:17:16;17.50;99.90
9399;DHT22;4739;49.334;8.792;2022-10-16T08:19:48;17.60;99.90
9399;DHT22;4739;49.334;8.792;2022-10-16T08:22:14;17.60;99.90
9399;DHT22;4739;49.334;8.792;2022-10-16T08:24:40;17.70;99.90
9399;DHT22;4739;49.334;8.792;2022-10-16T08:27:06;17.70;99.90
9399;DHT22;4739;49.334;8.792;2022-10-16T08:29:32;17.70;99.90
9399;DHT22;4739;49.334;8.792;2022-10-16T08:31:58;17.70;99.90
9399;DHT22;4739;49.334;8.792;2022-10-16T08:34:24;17.80;99.90
9399;DHT22;4739;49.334;8.792;2022-10-16T08:36:49;17.70;99.90
9399;DHT22;4739;49.334;8.792;2022-10-16T08:39:16;17.70;99.90
9399;DHT22;4739;49.334;8.792;2022-10-16T08:47:26;17.80;99.90
9399;DHT22;4739;49.334;8.792;2022-10-16T08:52:30;17.90;99.90
9399;DHT22;4739;49.334;8.792;2022-10-16T08:54:58;17.90;99.90
9399;DHT22;4739;49.334;8.792;2022-10-16T08:57:25;17.90;99.90
9399;DHT22;4739;49.334;8.792;2022-10-16T08:59:52;18.00;99.90
9399;DHT22;4739;49.334;8.792;2022-10-16T09:02:36;18.00;99.90
9399;DHT22;4739;49.334;8.792;2022-10-16T09:21:37;18.30;99.90
9399;DHT22;4739;49.334;8.792;2022-10-16T09:26:35;18.40;99.90
9399;DHT22;4739;49.334;8.792;2022-10-16T09:29:00;18.30;99.90
9399;DHT22;4739;49.334;8.792;2022-10-16T09:31:26;18.40;99.90
9399;DHT22;4739;49.334;8.792;2022-10-16T09:33:57;18.40;99.90
9399;DHT22;4739;49.334;8.792;2022-10-16T09:36:25;18.40;99.90
9399;DHT22;4739;49.334;8.792;2022-10-16T09:39:02;18.40;99.90
9399;DHT22;4739;49.334;8.792;2022-10-16T09:41:28;18.50;99.90
9399;DHT22;4739;49.334;8.792;2022-10-16T09:43:57;18.60;99.90
9399;DHT22;4739;49.334;8.792;2022-10-16T09:46:42;18.60;99.90
9399;DHT22;4739;49.334;8.792;2022-10-16T09:49:26;18.70;99.90
9399;DHT22;4739;49.334;8.792;2022-10-16T09:52:04;18.80;99.90
9399;DHT22;4739;49.334;8.792;2022-10-16T09:54:29;19.00;99.90
9399;DHT22;4739;49.334;8.792;2022-10-16T09:57:05;19.00;99.90
9399;DHT22;4739;49.334;8.792;2022-10-16T09:59:31;19.10;99.90
9399;DHT22;4739;49.334;8.792;2022-10-16T10:02:02;19.20;99.90
9399;DHT22;4739;49.334;8.792;2022-10-16T10:04:38;19.10;99.90
9399;DHT22;4739;49.334;8.792;2022-10-16T10:07:05;19.10;99.90
9399;DHT22;4739;49.334;8.792;2022-10-16T10:09:42;19.20;99.90
9399;DHT22;4739;49.334;8.792;2022-10-16T10:12:26;19.20;99.90
9399;DHT22;4739;49.334;8.792;2022-10-16T10:14:56;19.30;99.90
9399;DHT22;4739;49.334;8.792;2022-10-16T10:17:27;19.40;99.90
9399;DHT22;4739;49.334;8.792;2022-10-16T10:30:57;20.30;99.90
9399;DHT22;4739;49.334;8.792;2022-10-16T10:33:52;20.50;99.90
9399;DHT22;4739;49.334;8.792;2022-10-16T10:36:35;20.80;99.90
9399;DHT22;4739;49.334;8.792;2022-10-16T10:39:21;21.00;99.90
9399;DHT22;4739;49.334;8.792;2022-10-16T10:42:13;21.10;99.90
9399;DHT22;4739;49.334;8.792;2022-10-16T10:45:08;21.10;99.90
9399;DHT22;4739;49.334;8.792;2022-10-16T10:50:44;21.00;99.90
9399;DHT22;4739;49.334;8.792;2022-10-16T10:53:30;21.10;99.90
9399;DHT22;4739;49.334;8.792;2022-10-16T10:56:14;21.20;99.90
9399;DHT22;4739;49.334;8.792;2022-10-16T10:59:08;21.30;99.90
9399;DHT22;4739;49.334;8.792;2022-10-16T11:06:50;21.60;99.90
9399;DHT22;4739;49.334;8.792;2022-10-16T11:09:25;21.50;99.90
9399;DHT22;4739;49.334;8.792;2022-10-16T11:12:00;21.50;99.90
9399;DHT22;4739;49.334;8.792;2022-10-16T11:14:55;21.40;99.90
9399;DHT22;4739;49.334;8.792;2022-10-16T11:17:27;21.50;99.90
9399;DHT22;4739;49.334;8.792;2022-10-16T11:20:00;21.60;99.90
9399;DHT22;4739;49.334;8.792;2022-10-16T11:22:36;21.70;99.90
9399;DHT22;4739;49.334;8.792;2022-10-16T11:25:15;21.80;99.90
9399;DHT22;4739;49.334;8.792;2022-10-16T11:35:53;22.30;99.90
9399;DHT22;4739;49.334;8.792;2022-10-16T11:38:36;22.40;99.90
9399;DHT22;4739;49.334;8.792;2022-10-16T11:41:22;22.50;99.90
9399;DHT22;4739;49.334;8.792;2022-10-16T11:44:14;22.60;99.90
9399;DHT22;4739;49.334;8.792;2022-10-16T11:46:48;22.50;99.90
9399;DHT22;4739;49.334;8.792;2022-10-16T11:49:20;22.50;99.90
9399;DHT22;4739;49.334;8.792;2022-10-16T11:51:58;22.40;99.90
9399;DHT22;4739;49.334;8.792;2022-10-16T11:54:51;22.40;99.90
9399;DHT22;4739;49.334;8.792;2022-10-16T11:57:24;22.10;99.90
9399;DHT22;4739;49.334;8.792;2022-10-16T12:00:00;22.00;99.90
9399;DHT22;4739;49.334;8.792;2022-10-16T12:05:28;21.90;99.90
9399;DHT22;4739;49.334;8.792;2022-10-16T12:08:13;21.80;99.90
9399;DHT22;4739;49.334;8.792;2022-10-16T12:10:41;21.90;99.90
9399;DHT22;4739;49.334;8.792;2022-10-16T12:13:36;21.90;99.90
9399;DHT22;4739;49.334;8.792;2022-10-16T12:18:40;21.90;99.90
9399;DHT22;4739;49.334;8.792;2022-10-16T12:21:06;21.90;99.90
9399;DHT22;4739;49.334;8.792;2022-10-16T12:23:37;21.70;99.90
9399;DHT22;4739;49.334;8.792;2022-10-16T12:26:04;21.60;99.90
9399;DHT22;4739;49.334;8.792;2022-10-16T12:28:31;21.40;99.90
9399;DHT22;4739;49.334;8.792;2022-10-16T12:31:00;21.30;99.90
9399;DHT22;4739;49.334;8.792;2022-10-16T12:33:35;21.20;99.90
9399;DHT22;4739;49.334;8.792;2022-10-16T12:36:10;21.20;99.90
9399;DHT22;4739;49.334;8.792;2022-10-16T12:38:49;21.20;99.90
9399;DHT22;4739;49.334;8.792;2022-10-16T12:41:31;21.40;99.90
9399;DHT22;4739;49.334;8.792;2022-10-16T12:43:58;21.50;99.90
9399;DHT22;4739;49.334;8.792;2022-10-16T12:51:41;21.90;99.90
9399;DHT22;4739;49.334;8.792;2022-10-16T12:57:41;22.50;99.90
9399;DHT22;4739;49.334;8.792;2022-10-16T13:03:09;22.50;99.90
9399;DHT22;4739;49.334;8.792;2022-10-16T13:18:51;22.00;99.90
9399;DHT22;4739;49.334;8.792;2022-10-16T13:30:02;21.70;99.90
9399;DHT22;4739;49.334;8.792;2022-10-16T13:32:33;21.60;99.90
9399;DHT22;4739;49.334;8.792;2022-10-16T13:34:59;21.50;99.90
9399;DHT22;4739;49.334;8.792;2022-10-16T13:37:26;21.30;99.90
9399;DHT22;4739;49.334;8.792;2022-10-16T13:40:05;21.10;99.90
9399;DHT22;4739;49.334;8.792;2022-10-16T13:42:32;21.00;99.90
9399;DHT22;4739;49.334;8.792;2022-10-16T13:44:58;20.80;99.90
9399;DHT22;4739;49.334;8.792;2022-10-16T13:47:26;20.60;99.90
9399;DHT22;4739;49.334;8.792;2022-10-16T13:50:06;20.50;99.90
9399;DHT22;4739;49.334;8.792;2022-10-16T13:52:32;20.40;99.90
9399;DHT22;4739;49.334;8.792;2022-10-16T13:54:58;20.30;99.90
9399;DHT22;4739;49.334;8.792;2022-10-16T13:57:25;20.10;99.90
9399;DHT22;4739;49.334;8.792;2022-10-16T13:59:51;20.00;99.90
9399;DHT22;4739;49.334;8.792;2022-10-16T14:02:29;19.90;99.90
9399;DHT22;4739;49.334;8.792;2022-10-16T14:04:56;19.80;99.90
9399;DHT22;4739;49.334;8.792;2022-10-16T14:07:31;19.70;99.90
9399;DHT22;4739;49.334;8.792;2022-10-16T14:10:05;19.60;99.90
9399;DHT22;4739;49.334;8.792;2022-10-16T14:12:31;19.60;99.90
9399;DHT22;4739;49.334;8.792;2022-10-16T14:14:58;19.50;99.90
9399;DHT22;4739;49.334;8.792;2022-10-16T14:17:27;19.40;99.90
9399;DHT22;4739;49.334;8.792;2022-10-16T14:19:56;19.30;99.90
9399;DHT22;4739;49.334;8.792;2022-10-16T14:22:29;19.20;99.90
9399;DHT22;4739;49.334;8.792;2022-10-16T14:24:55;19.20;99.90
9399;DHT22;4739;49.334;8.792;2022-10-16T14:27:31;19.10;99.90
9399;DHT22;4739;49.334;8.792;2022-10-16T14:30:16;19.10;99.90
9399;DHT22;4739;49.334;8.792;2022-10-16T14:33:02;19.00;99.90
9399;DHT22;4739;49.334;8.792;2022-10-16T14:35:33;19.00;99.90
9399;DHT22;4739;49.334;8.792;2022-10-16T14:38:01;19.00;99.90
9399;DHT22;4739;49.334;8.792;2022-10-16T14:40:33;19.00;99.90
9399;DHT22;4739;49.334;8.792;2022-10-16T14:43:00;18.90;99.90
9399;DHT22;4739;49.334;8.792;2022-10-16T14:45:29;18.80;99.90
9399;DHT22;4739;49.334;8.792;2022-10-16T14:47:58;18.80;99.90
9399;DHT22;4739;49.334;8.792;2022-10-16T14:50:24;18.70;99.90
9399;DHT22;4739;49.334;8.792;2022-10-16T14:52:50;18.70;99.90
9399;DHT22;4739;49.334;8.792;2022-10-16T14:55:16;18.80;99.90
9399;DHT22;4739;49.334;8.792;2022-10-16T14:57:43;18.80;99.90
9399;DHT22;4739;49.334;8.792;2022-10-16T15:00:18;18.80;99.90
9399;DHT22;4739;49.334;8.792;2022-10-16T15:02:45;18.80;99.90
9399;DHT22;4739;49.334;8.792;2022-10-16T15:05:21;18.80;99.90
9399;DHT22;4739;49.334;8.792;2022-10-16T15:07:48;18.90;99.90
9399;DHT22;4739;49.334;8.792;2022-10-16T15:10:15;18.90;99.90
9399;DHT22;4739;49.334;8.792;2022-10-16T15:12:41;19.00;99.90
9399;DHT22;4739;49.334;8.792;2022-10-16T15:15:33;19.10;99.90
9399;DHT22;4739;49.334;8.792;2022-10-16T15:17:59;19.20;99.90
9399;DHT22;4739;49.334;8.792;2022-10-16T15:20:34;19.30;99.90
9399;DHT22;4739;49.334;8.792;2022-10-16T15:23:14;19.30;99.90
9399;DHT22;4739;49.334;8.792;2022-10-16T15:25:48;19.40;99.90
9399;DHT22;4739;49.334;8.792;2022-10-16T15:28:16;19.20;99.90
9399;DHT22;4739;49.334;8.792;2022-10-16T15:30:42;19.20;99.90
9399;DHT22;4739;49.334;8.792;2022-10-16T15:33:13;19.10;99.90
9399;DHT22;4739;49.334;8.792;2022-10-16T15:35:40;18.90;99.90
9399;DHT22;4739;49.334;8.792;2022-10-16T15:38:05;18.80;99.90
9399;DHT22;4739;49.334;8.792;2022-10-16T15:40:31;18.80;99.90
9399;DHT22;4739;49.334;8.792;2022-10-16T15:42:56;18.70;99.90
9399;DHT22;4739;49.334;8.792;2022-10-16T15:45:22;18.60;99.90
9399;DHT22;4739;49.334;8.792;2022-10-16T15:47:48;18.60;99.90
9399;DHT22;4739;49.334;8.792;2022-10-16T15:50:15;18.60;99.90
9399;DHT22;4739;49.334;8.792;2022-10-16T15:52:41;18.60;99.90
9399;DHT22;4739;49.334;8.792;2022-10-16T15:55:08;18.60;99.90
9399;DHT22;4739;49.334;8.792;2022-10-16T15:57:35;18.50;99.90
9399;DHT22;4739;49.334;8.792;2022-10-16T16:00:05;18.50;99.90
9399;DHT22;4739;49.334;8.792;2022-10-16T16:02:30;18.40;99.90
9399;DHT22;4739;49.334;8.792;2022-10-16T16:04:56;18.40;99.90
9399;DHT22;4739;49.334;8.792;2022-10-16T16:07:22;18.30;99.90
9399;DHT22;4739;49.334;8.792;2022-10-16T16:09:48;18.20;99.90
9399;DHT22;4739;49.334;8.792;2022-10-16T16:12:13;18.30;99.90
9399;DHT22;4739;49.334;8.792;2022-10-16T16:14:39;18.20;99.90
9399;DHT22;4739;49.334;8.792;2022-10-16T16:17:04;18.10;99.90
9399;DHT22;4739;49.334;8.792;2022-10-16T16:19:30;18.10;99.90
9399;DHT22;4739;49.334;8.792;2022-10-16T16:21:57;18.10;99.90
9399;DHT22;4739;49.334;8.792;2022-10-16T16:24:22;18.00;99.90
9399;DHT22;4739;49.334;8.792;2022-10-16T16:26:48;18.00;99.90
9399;DHT22;4739;49.334;8.792;2022-10-16T16:29:14;17.90;99.90
9399;DHT22;4739;49.334;8.792;2022-10-16T16:31:41;17.80;99.90
9399;DHT22;4739;49.334;8.792;2022-10-16T16:34:07;17.70;99.90
9399;DHT22;4739;49.334;8.792;2022-10-16T16:36:33;17.60;99.90
9399;DHT22;4739;49.334;8.792;2022-10-16T16:38:59;17.60;99.90
9399;DHT22;4739;49.334;8.792;2022-10-16T16:41:27;17.50;99.90
9399;DHT22;4739;49.334;8.792;2022-10-16T16:43:54;17.40;99.90
9399;DHT22;4739;49.334;8.792;2022-10-16T16:46:20;17.40;99.90
9399;DHT22;4739;49.334;8.792;2022-10-16T16:48:45;17.30;99.90
9399;DHT22;4739;49.334;8.792;2022-10-16T16:51:16;17.20;99.90
9399;DHT22;4739;49.334;8.792;2022-10-16T16:53:48;17.30;99.90
9399;DHT22;4739;49.334;8.792;2022-10-16T16:56:14;17.20;99.90
9399;DHT22;4739;49.334;8.792;2022-10-16T16:58:40;17.10;99.90
9399;DHT22;4739;49.334;8.792;2022-10-16T17:01:10;17.10;99.90
9399;DHT22;4739;49.334;8.792;2022-10-16T17:03:36;17.00;99.90
9399;DHT22;4739;49.334;8.792;2022-10-16T17:06:04;16.90;99.90
9399;DHT22;4739;49.334;8.792;2022-10-16T17:08:31;16.90;99.90
9399;DHT22;4739;49.334;8.792;2022-10-16T17:10:57;16.90;99.90
9399;DHT22;4739;49.334;8.792;2022-10-16T17:13:24;16.80;99.90
9399;DHT22;4739;49.334;8.792;2022-10-16T17:15:51;16.80;99.90
9399;DHT22;4739;49.334;8.792;2022-10-16T17:18:18;16.70;99.90
9399;DHT22;4739;49.334;8.792;2022-10-16T17:20:44;16.70;99.90
9399;DHT22;4739;49.334;8.792;2022-10-16T17:23:10;16.80;99.90
9399;DHT22;4739;49.334;8.792;2022-10-16T17:25:39;16.70;99.90
9399;DHT22;4739;49.334;8.792;2022-10-16T17:28:05;16.80;99.90
9399;DHT22;4739;49.334;8.792;2022-10-16T17:30:31;16.70;99.90
9399;DHT22;4739;49.334;8.792;2022-10-16T17:32:58;16.70;99.90
9399;DHT22;4739;49.334;8.792;2022-10-16T17:35:25;16.60;99.90
9399;DHT22;4739;49.334;8.792;2022-10-16T17:37:51;16.60;99.90
9399;DHT22;4739;49.334;8.792;2022-10-16T17:40:17;16.60;99.90
9399;DHT22;4739;49.334;8.792;2022-10-16T17:42:43;16.60;99.90
9399;DHT22;4739;49.334;8.792;2022-10-16T17:45:08;16.60;99.90
9399;DHT22;4739;49.334;8.792;2022-10-16T17:47:34;16.50;99.90
9399;DHT22;4739;49.334;8.792;2022-10-16T17:50:01;16.50;99.90
9399;DHT22;4739;49.334;8.792;2022-10-16T17:52:26;16.50;99.90
9399;DHT22;4739;49.334;8.792;2022-10-16T17:54:52;16.50;99.90
9399;DHT22;4739;49.334;8.792;2022-10-16T17:57:17;16.50;99.90
9399;DHT22;4739;49.334;8.792;2022-10-16T17:59:43;16.50;99.90
9399;DHT22;4739;49.334;8.792;2022-10-16T18:02:09;16.50;99.90
9399;DHT22;4739;49.334;8.792;2022-10-16T18:04:36;16.50;99.90
9399;DHT22;4739;49.334;8.792;2022-10-16T18:07:02;16.40;99.90
9399;DHT22;4739;49.334;8.792;2022-10-16T18:09:28;16.40;99.90